Time;durP1;ratioP1;P1;durP2;ratioP2;P2;SDS_P1;SDS_P2;PMS_P1;PMS_P2;Temp;Humidity;BMP_temperature;BMP_pressure;BME280_temperature;BME280_humidity;BME280_pressure;Samples;Min_cycle;Max_cycle;Signal;HPM_P1;HPM_P2
2022/03/25 00:00:12;;;;;;;;;;;7.00;99.90;;;;;;4925888;29;19931;-83
2022/03/25 00:02:41;;;;;;;;;;;7.00;99.90;;;;;;4925828;29;19999;-84
2022/03/25 00:05:12;;;;;;;;;;;7.00;99.90;;;;;;4943952;29;19930;-83
2022/03/25 00:07:41;;;;;;;;;;;6.90;99.90;;;;;;4913608;29;20382;-86
2022/03/25 00:10:10;;;;;;;;;;;6.80;99.90;;;;;;4934003;29;19941;-82
2022/03/25 00:12:41;;;;;;;;;;;6.80;99.90;;;;;;4947066;29;19937;-84
2022/03/25 00:15:11;;;;;;;;;;;6.80;99.90;;;;;;4963820;29;19927;-85
2022/03/25 00:17:39;;;;;;;;;;;6.70;99.90;;;;;;4928540;29;19938;-84
2022/03/25 00:20:07;;;;;;;;;;;6.70;99.90;;;;;;4960544;29;20709;-83
2022/03/25 00:22:37;;;;;;;;;;;6.70;99.90;;;;;;4943136;29;19926;-83
2022/03/25 00:25:06;;;;;;;;;;;6.60;99.90;;;;;;4956627;29;19938;-84
2022/03/25 00:27:34;;;;;;;;;;;6.60;99.90;;;;;;4924084;29;19942;-84
2022/03/25 00:30:04;;;;;;;;;;;6.40;99.90;;;;;;4925275;29;19931;-83
2022/03/25 00:32:32;;;;;;;;;;;6.50;99.90;;;;;;4938352;29;19927;-83
2022/03/25 00:35:03;;;;;;;;;;;6.50;99.90;;;;;;4923245;29;20042;-85
2022/03/25 00:37:34;;;;;;;;;;;6.50;99.90;;;;;;4940575;29;20592;-83
2022/03/25 00:40:03;;;;;;;;;;;6.50;99.90;;;;;;4940749;29;19927;-83
2022/03/25 00:42:32;;;;;;;;;;;6.50;99.90;;;;;;4907065;29;19931;-83
2022/03/25 00:45:02;;;;;;;;;;;6.40;99.90;;;;;;4919164;29;19927;-85
2022/03/25 00:47:30;;;;;;;;;;;6.50;99.90;;;;;;4903945;29;19958;-83
2022/03/25 00:49:58;;;;;;;;;;;6.40;99.90;;;;;;4904894;29;19927;-83
2022/03/25 00:52:26;;;;;;;;;;;6.50;99.90;;;;;;4894013;29;19934;-83
2022/03/25 00:54:54;;;;;;;;;;;6.40;99.90;;;;;;4920920;29;19935;-82
2022/03/25 00:57:23;;;;;;;;;;;6.30;99.90;;;;;;4919512;29;19934;-83
2022/03/25 00:59:51;;;;;;;;;;;6.20;99.90;;;;;;4930034;29;20321;-82
2022/03/25 01:02:19;;;;;;;;;;;6.20;99.90;;;;;;4920393;29;19931;-83
2022/03/25 01:04:49;;;;;;;;;;;6.20;99.90;;;;;;4919703;29;19931;-83
2022/03/25 01:07:19;;;;;;;;;;;6.10;99.90;;;;;;4920695;29;19938;-85
2022/03/25 01:09:49;;;;;;;;;;;6.10;99.90;;;;;;4901578;29;19938;-83
2022/03/25 01:12:17;;;;;;;;;;;6.10;99.90;;;;;;4901099;29;19928;-86
2022/03/25 01:14:46;;;;;;;;;;;6.10;99.90;;;;;;4887460;29;19927;-83
2022/03/25 01:17:16;;;;;;;;;;;6.10;99.90;;;;;;4904065;29;19927;-82
2022/03/25 01:19:46;;;;;;;;;;;6.10;99.90;;;;;;4903502;29;19950;-84
2022/03/25 01:22:15;;;;;;;;;;;6.00;99.90;;;;;;4901005;29;19931;-87
2022/03/25 01:24:43;;;;;;;;;;;6.00;99.90;;;;;;4871113;29;20023;-84
2022/03/25 01:27:10;;;;;;;;;;;6.00;99.90;;;;;;4927248;29;20098;-83
2022/03/25 01:29:40;;;;;;;;;;;6.00;99.90;;;;;;4919567;29;19931;-82
2022/03/25 01:32:10;;;;;;;;;;;6.00;99.90;;;;;;4905419;29;19931;-82
2022/03/25 01:34:40;;;;;;;;;;;6.00;99.90;;;;;;4920014;29;19934;-82
2022/03/25 01:37:09;;;;;;;;;;;5.90;99.90;;;;;;4888179;29;19934;-84
2022/03/25 01:39:39;;;;;;;;;;;5.90;99.90;;;;;;4887359;29;19947;-83
2022/03/25 01:42:07;;;;;;;;;;;5.80;99.90;;;;;;4885818;29;19931;-83
2022/03/25 01:44:35;;;;;;;;;;;5.80;99.90;;;;;;4899944;29;19931;-83
2022/03/25 01:47:07;;;;;;;;;;;5.70;99.90;;;;;;4900690;29;19935;-83
2022/03/25 01:49:35;;;;;;;;;;;5.70;99.90;;;;;;4901145;29;19927;-83
2022/03/25 01:52:06;;;;;;;;;;;5.70;99.90;;;;;;4900734;29;19938;-83
2022/03/25 01:54:35;;;;;;;;;;;5.70;99.90;;;;;;4916106;29;19954;-83
2022/03/25 01:57:06;;;;;;;;;;;5.60;99.90;;;;;;4927652;29;19937;-84
2022/03/25 01:59:34;;;;;;;;;;;5.60;99.90;;;;;;4918307;29;19931;-83
2022/03/25 02:02:03;;;;;;;;;;;5.60;99.90;;;;;;4918869;29;19950;-83
2022/03/25 02:04:34;;;;;;;;;;;5.60;99.90;;;;;;4918758;29;19960;-83
2022/03/25 02:07:04;;;;;;;;;;;5.50;99.90;;;;;;4918292;29;19933;-82
2022/03/25 02:09:32;;;;;;;;;;;5.50;99.90;;;;;;4918101;29;19938;-83
2022/03/25 02:12:01;;;;;;;;;;;5.40;99.90;;;;;;4954698;29;19934;-84
2022/03/25 02:14:29;;;;;;;;;;;5.40;99.90;;;;;;4936403;29;19933;-88
2022/03/25 02:16:57;;;;;;;;;;;5.40;99.90;;;;;;4938207;29;19931;-84
2022/03/25 02:19:25;;;;;;;;;;;5.40;99.90;;;;;;4937187;29;19941;-83
2022/03/25 02:21:53;;;;;;;;;;;5.40;99.90;;;;;;4937703;29;19937;-83
2022/03/25 02:24:28;;;;;;;;;;;5.40;99.90;;;;;;4938050;29;19930;-83
2022/03/25 02:26:57;;;;;;;;;;;5.30;99.90;;;;;;4919181;29;20419;-82
2022/03/25 02:29:24;;;;;;;;;;;5.30;99.90;;;;;;4917787;29;19927;-83
2022/03/25 02:31:53;;;;;;;;;;;5.30;99.90;;;;;;4918074;29;19934;-83
2022/03/25 02:34:24;;;;;;;;;;;5.30;99.90;;;;;;4918423;29;19934;-83
2022/03/25 02:36:51;;;;;;;;;;;5.20;99.90;;;;;;4903770;29;19931;-83
2022/03/25 02:39:20;;;;;;;;;;;5.30;99.90;;;;;;4920146;29;19927;-84
2022/03/25 02:41:51;;;;;;;;;;;5.20;99.90;;;;;;4908037;29;19926;-82
2022/03/25 02:44:20;;;;;;;;;;;5.20;99.90;;;;;;4938780;29;19926;-84
2022/03/25 02:46:48;;;;;;;;;;;5.20;99.90;;;;;;4954595;29;19934;-85
2022/03/25 02:49:18;;;;;;;;;;;5.20;99.90;;;;;;4926206;29;19927;-83
2022/03/25 02:51:47;;;;;;;;;;;5.10;99.90;;;;;;4919853;29;20279;-83
2022/03/25 02:54:15;;;;;;;;;;;5.10;99.90;;;;;;4935241;29;19926;-83
2022/03/25 02:56:44;;;;;;;;;;;5.10;99.90;;;;;;4944414;29;19935;-83
2022/03/25 02:59:12;;;;;;;;;;;5.10;99.90;;;;;;4953061;29;19930;-84
2022/03/25 03:01:40;;;;;;;;;;;5.10;99.90;;;;;;4937626;29;19934;-83
2022/03/25 03:04:09;;;;;;;;;;;5.00;99.90;;;;;;4937050;29;19933;-85
2022/03/25 03:06:36;;;;;;;;;;;5.00;99.90;;;;;;4955594;29;20297;-84
2022/03/25 03:09:04;;;;;;;;;;;5.00;99.90;;;;;;4950801;29;20488;-83
2022/03/25 03:11:32;;;;;;;;;;;5.00;99.90;;;;;;4938121;29;19927;-84
2022/03/25 03:13:59;;;;;;;;;;;5.00;99.90;;;;;;4919121;29;20318;-83
2022/03/25 03:16:29;;;;;;;;;;;5.00;99.90;;;;;;4919168;29;19927;-84
2022/03/25 03:18:57;;;;;;;;;;;5.00;99.90;;;;;;4919733;29;19934;-83
2022/03/25 03:21:25;;;;;;;;;;;5.00;99.90;;;;;;4918629;29;19935;-84
2022/03/25 03:23:53;;;;;;;;;;;4.90;99.90;;;;;;4937698;29;19930;-84
2022/03/25 03:26:22;;;;;;;;;;;4.90;99.90;;;;;;4929150;29;19927;-83
2022/03/25 03:28:50;;;;;;;;;;;4.80;99.90;;;;;;4937518;29;19938;-83
2022/03/25 03:31:22;;;;;;;;;;;4.80;99.90;;;;;;4936483;29;19931;-83
2022/03/25 03:33:50;;;;;;;;;;;4.70;99.90;;;;;;4918768;29;20271;-83
2022/03/25 03:36:18;;;;;;;;;;;4.70;99.90;;;;;;4919938;29;19927;-82
2022/03/25 03:38:47;;;;;;;;;;;4.70;99.90;;;;;;4919954;29;19934;-82
2022/03/25 03:41:15;;;;;;;;;;;4.70;99.90;;;;;;4901584;29;19938;-83
2022/03/25 03:43:45;;;;;;;;;;;4.70;99.90;;;;;;4936314;29;19938;-84
2022/03/25 03:46:14;;;;;;;;;;;4.70;99.90;;;;;;4916441;29;19926;-84
2022/03/25 03:48:43;;;;;;;;;;;4.60;99.90;;;;;;4939247;29;19926;-83
2022/03/25 03:51:11;;;;;;;;;;;4.70;99.90;;;;;;4954899;29;19931;-83
2022/03/25 03:53:39;;;;;;;;;;;4.60;99.90;;;;;;4937466;29;19930;-83
2022/03/25 03:56:06;;;;;;;;;;;4.60;99.90;;;;;;4926532;29;19927;-84
2022/03/25 03:58:35;;;;;;;;;;;4.60;99.90;;;;;;4919447;29;19937;-83
2022/03/25 04:01:03;;;;;;;;;;;4.50;99.90;;;;;;4919293;29;19934;-82
2022/03/25 04:03:34;;;;;;;;;;;4.60;99.90;;;;;;4936530;29;19927;-85
2022/03/25 04:06:03;;;;;;;;;;;4.50;99.90;;;;;;4938478;29;20402;-83
2022/03/25 04:08:31;;;;;;;;;;;4.50;99.90;;;;;;4938638;29;19927;-83
2022/03/25 04:10:58;;;;;;;;;;;4.50;99.90;;;;;;4921145;29;19927;-82
2022/03/25 04:13:26;;;;;;;;;;;4.40;99.90;;;;;;4905399;29;19926;-84
2022/03/25 04:15:53;;;;;;;;;;;4.40;99.90;;;;;;4939736;29;19936;-82
2022/03/25 04:18:23;;;;;;;;;;;4.30;99.90;;;;;;4923650;29;19927;-83
2022/03/25 04:20:51;;;;;;;;;;;4.30;99.90;;;;;;4927448;29;19931;-83
2022/03/25 04:23:19;;;;;;;;;;;4.30;99.90;;;;;;4942825;29;19927;-82
2022/03/25 04:25:47;;;;;;;;;;;4.90;99.90;;;;;;4947907;29;19927;-84
2022/03/25 04:28:17;;;;;;;;;;;4.30;99.90;;;;;;4934793;29;19934;-84
2022/03/25 04:30:46;;;;;;;;;;;4.30;99.90;;;;;;4938518;29;19999;-83
2022/03/25 04:33:14;;;;;;;;;;;4.30;99.90;;;;;;4906260;29;19941;-84
2022/03/25 04:35:41;;;;;;;;;;;4.30;99.90;;;;;;4922428;29;19955;-83
2022/03/25 04:38:09;;;;;;;;;;;4.20;99.90;;;;;;4924684;29;19931;-84
2022/03/25 04:40:37;;;;;;;;;;;5.40;99.90;;;;;;4951557;29;19934;-83
2022/03/25 04:43:05;;;;;;;;;;;4.20;99.90;;;;;;4959243;29;19937;-85
2022/03/25 04:45:33;;;;;;;;;;;4.20;99.90;;;;;;4923034;29;19937;-83
2022/03/25 04:48:03;;;;;;;;;;;4.20;99.90;;;;;;4924536;29;19927;-83
2022/03/25 04:50:30;;;;;;;;;;;4.20;99.90;;;;;;4923768;29;19927;-83
2022/03/25 04:52:58;;;;;;;;;;;4.10;99.90;;;;;;4923621;29;19934;-84
2022/03/25 04:55:26;;;;;;;;;;;4.10;99.90;;;;;;4923943;29;19927;-84
2022/03/25 04:57:54;;;;;;;;;;;4.10;99.90;;;;;;4906299;29;19934;-84
2022/03/25 05:00:22;;;;;;;;;;;4.30;99.90;;;;;;4904387;29;19934;-83
2022/03/25 05:02:49;;;;;;;;;;;4.10;99.90;;;;;;4904241;29;19938;-85
2022/03/25 05:05:17;;;;;;;;;;;4.10;99.90;;;;;;4922336;29;20303;-83
2022/03/25 05:07:46;;;;;;;;;;;4.10;99.90;;;;;;4921801;29;19938;-84
2022/03/25 05:10:14;;;;;;;;;;;4.10;99.90;;;;;;4929388;29;19926;-83
2022/03/25 05:12:42;;;;;;;;;;;4.10;99.90;;;;;;4960901;29;19927;-84
2022/03/25 05:15:11;;;;;;;;;;;4.10;99.90;;;;;;4933552;29;19934;-84
2022/03/25 05:17:43;;;;;;;;;;;4.10;99.90;;;;;;4926676;29;20395;-84
2022/03/25 05:20:11;;;;;;;;;;;4.10;99.90;;;;;;4925441;29;19941;-84
2022/03/25 05:22:39;;;;;;;;;;;4.10;99.90;;;;;;4942659;29;19934;-83
2022/03/25 05:25:10;;;;;;;;;;;4.10;99.90;;;;;;4924575;29;19934;-85
2022/03/25 05:27:46;;;;;;;;;;;4.00;99.90;;;;;;4940517;29;19926;-84
2022/03/25 05:30:15;;;;;;;;;;;4.00;99.90;;;;;;4931247;29;19927;-83
2022/03/25 05:32:43;;;;;;;;;;;4.00;99.90;;;;;;4946915;29;19930;-85
2022/03/25 05:35:16;;;;;;;;;;;4.00;99.90;;;;;;4929110;29;19934;-84
2022/03/25 05:37:44;;;;;;;;;;;4.00;99.90;;;;;;4930694;29;19938;-84
2022/03/25 05:40:12;;;;;;;;;;;4.30;99.90;;;;;;4953477;29;19926;-83
2022/03/25 05:42:42;;;;;;;;;;;3.90;99.90;;;;;;4962812;29;19926;-83
2022/03/25 05:45:10;;;;;;;;;;;3.90;99.90;;;;;;4954375;29;20240;-83
2022/03/25 05:47:40;;;;;;;;;;;3.90;99.90;;;;;;4914845;29;19927;-84
2022/03/25 05:50:14;;;;;;;;;;;3.90;99.90;;;;;;4929449;29;19927;-83
2022/03/25 05:52:43;;;;;;;;;;;3.90;99.90;;;;;;4948576;29;19927;-82
2022/03/25 05:55:16;;;;;;;;;;;3.90;99.90;;;;;;4930803;29;19934;-82
2022/03/25 05:57:46;;;;;;;;;;;3.90;99.90;;;;;;4935162;29;19927;-83
2022/03/25 06:00:15;;;;;;;;;;;3.80;99.90;;;;;;4919972;29;19936;-83
2022/03/25 06:02:45;;;;;;;;;;;3.80;99.90;;;;;;4922142;29;19931;-84
2022/03/25 06:05:13;;;;;;;;;;;3.80;99.90;;;;;;4951869;29;19937;-85
2022/03/25 06:07:42;;;;;;;;;;;3.80;99.90;;;;;;4936683;29;19937;-83
2022/03/25 06:10:14;;;;;;;;;;;3.80;99.90;;;;;;4941249;29;19927;-82
2022/03/25 06:12:42;;;;;;;;;;;3.80;99.90;;;;;;4952641;29;19926;-83
2022/03/25 06:15:12;;;;;;;;;;;4.10;99.90;;;;;;4941210;29;19930;-81
2022/03/25 06:17:41;;;;;;;;;;;3.80;99.90;;;;;;4956228;29;19930;-84
2022/03/25 06:20:11;;;;;;;;;;;3.80;99.90;;;;;;4962779;29;19932;-82
2022/03/25 06:22:45;;;;;;;;;;;3.80;99.90;;;;;;4947703;29;20385;-82
2022/03/25 06:25:13;;;;;;;;;;;3.90;99.90;;;;;;4931506;29;20314;-82
2022/03/25 06:27:49;;;;;;;;;;;3.90;99.90;;;;;;4932585;29;19927;-82
2022/03/25 06:30:18;;;;;;;;;;;3.90;99.90;;;;;;4931333;29;19937;-82
2022/03/25 06:32:45;;;;;;;;;;;3.90;99.90;;;;;;4923649;29;19931;-83
2022/03/25 06:35:15;;;;;;;;;;;4.00;99.90;;;;;;4951879;29;19946;-82
2022/03/25 06:37:43;;;;;;;;;;;4.00;99.90;;;;;;4949780;29;19938;-83
2022/03/25 06:40:15;;;;;;;;;;;4.00;99.90;;;;;;4937787;29;19931;-83
2022/03/25 06:42:45;;;;;;;;;;;4.00;99.90;;;;;;4938193;29;19926;-86
2022/03/25 06:45:15;;;;;;;;;;;4.00;99.90;;;;;;4954170;29;19930;-84
2022/03/25 06:47:46;;;;;;;;;;;4.00;99.90;;;;;;4954224;29;20263;-85
2022/03/25 06:50:15;;;;;;;;;;;4.80;99.90;;;;;;4953481;29;19921;-82
2022/03/25 06:52:43;;;;;;;;;;;4.10;99.90;;;;;;4952121;29;19926;-82
2022/03/25 06:55:12;;;;;;;;;;;4.20;99.90;;;;;;4924032;29;19930;-83
2022/03/25 06:57:49;;;;;;;;;;;4.20;99.90;;;;;;4951850;29;19934;-82
2022/03/25 07:00:21;;;;;;;;;;;4.30;99.90;;;;;;4950563;29;20055;-82
2022/03/25 07:02:50;;;;;;;;;;;4.30;99.90;;;;;;4955812;29;19910;-80
2022/03/25 07:05:21;;;;;;;;;;;4.40;99.90;;;;;;4936960;29;19910;-82
2022/03/25 07:07:50;;;;;;;;;;;3.50;99.90;;;;;;4945069;29;19927;-82
2022/03/25 07:10:23;;;;;;;;;;;4.00;99.90;;;;;;4942352;29;19930;-82
2022/03/25 07:12:51;;;;;;;;;;;4.60;99.90;;;;;;4958270;29;20450;-81
2022/03/25 07:15:20;;;;;;;;;;;4.50;99.90;;;;;;4949374;29;19926;-83
2022/03/25 07:17:50;;;;;;;;;;;4.80;99.90;;;;;;4946935;29;20363;-82
2022/03/25 07:20:20;;;;;;;;;;;5.20;99.90;;;;;;4931464;29;19961;-83
2022/03/25 07:22:50;;;;;;;;;;;4.80;99.90;;;;;;4931528;29;19930;-81
2022/03/25 07:25:18;;;;;;;;;;;4.90;99.90;;;;;;4949106;29;19937;-80
2022/03/25 07:27:47;;;;;;;;;;;5.00;99.90;;;;;;4933149;29;19931;-80
2022/03/25 07:30:24;;;;;;;;;;;5.10;99.90;;;;;;4952971;29;19931;-84
2022/03/25 07:32:51;;;;;;;;;;;4.50;99.90;;;;;;4951604;29;19941;-81
2022/03/25 07:35:19;;;;;;;;;;;5.20;99.90;;;;;;4949038;29;19930;-82
2022/03/25 07:37:48;;;;;;;;;;;5.30;99.90;;;;;;4952618;29;20102;-84
2022/03/25 07:40:17;;;;;;;;;;;5.40;99.90;;;;;;4936057;29;19935;-85
2022/03/25 07:42:49;;;;;;;;;;;5.40;99.90;;;;;;4935372;29;19915;-81
2022/03/25 07:45:17;;;;;;;;;;;5.50;99.90;;;;;;4922776;29;20259;-82
2022/03/25 07:47:47;;;;;;;;;;;6.90;99.90;;;;;;4921067;29;19914;-84
2022/03/25 07:50:20;;;;;;;;;;;5.70;99.90;;;;;;4923826;29;19927;-84
2022/03/25 07:52:51;;;;;;;;;;;5.80;99.90;;;;;;4941390;29;19915;-83
2022/03/25 07:55:21;;;;;;;;;;;5.90;99.90;;;;;;4957581;29;19915;-85
2022/03/25 07:57:51;;;;;;;;;;;6.00;99.90;;;;;;4942708;29;19935;-85
2022/03/25 08:00:26;;;;;;;;;;;6.00;99.90;;;;;;4942097;29;19921;-84
2022/03/25 08:02:57;;;;;;;;;;;6.20;99.90;;;;;;4959874;29;19923;-87
2022/03/25 08:05:25;;;;;;;;;;;5.30;99.90;;;;;;4941317;29;20231;-85
2022/03/25 08:07:54;;;;;;;;;;;6.40;99.90;;;;;;4938709;29;19934;-84
2022/03/25 08:10:25;;;;;;;;;;;6.50;99.90;;;;;;4927129;29;19921;-84
2022/03/25 08:12:56;;;;;;;;;;;6.70;99.90;;;;;;4910196;29;20105;-85
2022/03/25 08:15:27;;;;;;;;;;;6.70;99.90;;;;;;4925737;29;20143;-83
2022/03/25 08:18:04;;;;;;;;;;;6.60;99.90;;;;;;4929681;29;20021;-86
2022/03/25 08:20:41;;;;;;;;;;;6.80;99.90;;;;;;4941955;29;19927;-87
2022/03/25 08:23:12;;;;;;;;;;;7.00;99.90;;;;;;4956960;29;20761;-86
2022/03/25 08:28:46;;;;;;;;;;;7.20;99.90;;;;;;4942846;29;19927;-85
2022/03/25 08:32:01;;;;;;;;;;;7.40;99.90;;;;;;4940068;29;19927;-87
2022/03/25 08:34:30;;;;;;;;;;;7.70;99.90;;;;;;4919409;29;19934;-85
2022/03/25 08:37:07;;;;;;;;;;;7.60;99.90;;;;;;4918370;29;19933;-85
2022/03/25 08:39:38;;;;;;;;;;;7.80;99.90;;;;;;4923676;29;19935;-84
2022/03/25 08:42:08;;;;;;;;;;;7.90;99.90;;;;;;4958054;29;19941;-84
2022/03/25 08:44:39;;;;;;;;;;;8.00;99.90;;;;;;4960998;29;19933;-83
2022/03/25 08:47:13;;;;;;;;;;;8.10;99.90;;;;;;4938809;29;19942;-84
2022/03/25 08:49:42;;;;;;;;;;;8.30;99.90;;;;;;4924124;29;19931;-88
2022/03/25 08:52:12;;;;;;;;;;;8.30;99.90;;;;;;4925614;29;19929;-87
2022/03/25 08:54:43;;;;;;;;;;;8.40;99.90;;;;;;4924371;29;19926;-88
2022/03/25 08:57:13;;;;;;;;;;;8.50;99.90;;;;;;4939752;29;19927;-89
2022/03/25 08:59:45;;;;;;;;;;;8.60;99.90;;;;;;4938127;29;19926;-88
2022/03/25 09:02:14;;;;;;;;;;;8.70;99.90;;;;;;4918023;29;20002;-88
2022/03/25 09:04:44;;;;;;;;;;;8.90;99.90;;;;;;4954443;29;19927;-86
2022/03/25 09:07:16;;;;;;;;;;;9.00;99.90;;;;;;4921630;29;19927;-88
2022/03/25 09:09:47;;;;;;;;;;;9.10;99.90;;;;;;4938367;29;19930;-87
2022/03/25 09:12:15;;;;;;;;;;;9.30;99.90;;;;;;4959035;29;19946;-91
2022/03/25 09:14:47;;;;;;;;;;;9.40;99.90;;;;;;4908070;29;19937;-88
2022/03/25 09:17:23;;;;;;;;;;;9.50;99.90;;;;;;4938996;29;19937;-88
2022/03/25 09:19:53;;;;;;;;;;;9.60;99.90;;;;;;4906074;29;19933;-87
2022/03/25 09:22:30;;;;;;;;;;;9.80;99.90;;;;;;4938782;29;19926;-86
2022/03/25 09:25:09;;;;;;;;;;;9.90;99.90;;;;;;4951561;29;19935;-88
2022/03/25 09:27:41;;;;;;;;;;;10.20;99.90;;;;;;4934411;29;19927;-86
2022/03/25 09:30:13;;;;;;;;;;;10.10;99.90;;;;;;4950559;29;19934;-86
2022/03/25 09:33:02;;;;;;;;;;;10.30;99.90;;;;;;4902899;29;19927;-85
2022/03/25 09:35:37;;;;;;;;;;;10.40;99.90;;;;;;4917965;29;19926;-86
2022/03/25 09:38:07;;;;;;;;;;;10.60;99.90;;;;;;4930007;29;19935;-87
2022/03/25 09:40:42;;;;;;;;;;;10.70;99.90;;;;;;4947488;29;19927;-89
2022/03/25 09:43:12;;;;;;;;;;;10.80;99.90;;;;;;4927944;29;19934;-88
2022/03/25 09:45:41;;;;;;;;;;;10.90;99.90;;;;;;4928009;29;19934;-88
2022/03/25 09:48:09;;;;;;;;;;;11.10;99.90;;;;;;4928791;29;19931;-89
2022/03/25 09:50:40;;;;;;;;;;;11.20;99.90;;;;;;4943135;29;19927;-84
2022/03/25 09:53:31;;;;;;;;;;;11.30;99.90;;;;;;4905521;29;20020;-84
2022/03/25 09:55:59;;;;;;;;;;;11.40;99.90;;;;;;4944100;29;19934;-87
2022/03/25 09:58:28;;;;;;;;;;;11.50;99.90;;;;;;4893762;29;19934;-86
2022/03/25 10:01:02;;;;;;;;;;;11.60;99.90;;;;;;4928162;29;19931;-86
2022/03/25 10:03:36;;;;;;;;;;;11.70;99.90;;;;;;4897227;29;19927;-85
2022/03/25 10:06:11;;;;;;;;;;;11.80;99.90;;;;;;4909020;29;19927;-87
2022/03/25 10:08:45;;;;;;;;;;;12.90;99.90;;;;;;4912308;29;19934;-86
2022/03/25 10:11:22;;;;;;;;;;;12.00;99.90;;;;;;4934557;29;19937;-86
2022/03/25 10:14:14;;;;;;;;;;;12.40;99.90;;;;;;4949766;29;19927;-87
2022/03/25 10:16:47;;;;;;;;;;;12.20;99.90;;;;;;4923390;29;20318;-85
2022/03/25 10:19:25;;;;;;;;;;;11.80;99.90;;;;;;4950721;29;19934;-87
2022/03/25 10:22:01;;;;;;;;;;;12.40;99.90;;;;;;4919241;29;19922;-87
2022/03/25 10:24:38;;;;;;;;;;;12.50;99.90;;;;;;4934155;29;20243;-87
2022/03/25 10:27:25;;;;;;;;;;;11.90;99.60;;;;;;4927785;29;19927;-89
2022/03/25 10:29:56;;;;;;;;;;;12.80;99.70;;;;;;4933030;29;19930;-88
2022/03/25 10:32:26;;;;;;;;;;;12.90;99.40;;;;;;4929102;29;20634;-86
2022/03/25 10:35:07;;;;;;;;;;;13.00;98.90;;;;;;4912844;29;19931;-88
2022/03/25 10:37:55;;;;;;;;;;;13.10;99.00;;;;;;4915115;29;19927;-87
2022/03/25 10:40:23;;;;;;;;;;;13.30;98.80;;;;;;4946887;29;19926;-90
2022/03/25 10:43:04;;;;;;;;;;;13.40;99.20;;;;;;4933931;29;19927;-88
2022/03/25 10:45:41;;;;;;;;;;;13.50;98.60;;;;;;4928115;29;19927;-86
2022/03/25 10:48:27;;;;;;;;;;;13.50;98.50;;;;;;4942664;29;19937;-88
2022/03/25 10:50:56;;;;;;;;;;;13.70;98.40;;;;;;4922991;29;19926;-88
2022/03/25 10:53:29;;;;;;;;;;;13.90;98.30;;;;;;4910651;29;19930;-90
2022/03/25 10:56:06;;;;;;;;;;;14.00;97.80;;;;;;4929264;29;19935;-88
2022/03/25 10:58:35;;;;;;;;;;;14.10;97.80;;;;;;4899547;29;19933;-90
2022/03/25 11:01:12;;;;;;;;;;;14.30;97.40;;;;;;4915284;29;19927;-89
2022/03/25 11:03:42;;;;;;;;;;;14.80;97.40;;;;;;4905763;29;19930;-87
2022/03/25 11:06:15;;;;;;;;;;;14.60;96.90;;;;;;4908852;29;19927;-87
2022/03/25 11:08:43;;;;;;;;;;;14.70;96.70;;;;;;4913929;29;19927;-86
2022/03/25 11:11:14;;;;;;;;;;;14.90;96.00;;;;;;4897835;29;20210;-90
2022/03/25 11:13:46;;;;;;;;;;;15.00;96.50;;;;;;4924205;29;19935;-90
2022/03/25 11:16:16;;;;;;;;;;;15.10;95.80;;;;;;4924874;29;19931;-87
2022/03/25 11:18:48;;;;;;;;;;;15.20;95.20;;;;;;4911111;29;19931;-89
2022/03/25 11:21:23;;;;;;;;;;;15.30;95.00;;;;;;4914399;29;19946;-90
2022/03/25 11:23:56;;;;;;;;;;;15.40;95.50;;;;;;4909335;29;19931;-87
2022/03/25 11:26:28;;;;;;;;;;;15.40;94.80;;;;;;4944080;29;19941;-89
2022/03/25 11:29:13;;;;;;;;;;;15.50;94.60;;;;;;4927944;29;19938;-90
2022/03/25 11:32:11;;;;;;;;;;;15.70;94.70;;;;;;4945352;29;19927;-89
2022/03/25 11:35:07;;;;;;;;;;;15.80;93.80;;;;;;4936586;29;19933;-90
2022/03/25 11:38:09;;;;;;;;;;;15.90;93.90;;;;;;4934900;29;19927;-88
2022/03/25 11:40:54;;;;;;;;;;;16.00;93.60;;;;;;4941591;29;19927;-89
2022/03/25 11:43:51;;;;;;;;;;;16.10;92.70;;;;;;4953690;29;19922;-88
2022/03/25 11:46:27;;;;;;;;;;;16.20;92.30;;;;;;4935021;29;20606;-91
2022/03/25 11:49:16;;;;;;;;;;;16.20;92.30;;;;;;4936028;29;19918;-89
2022/03/25 11:51:46;;;;;;;;;;;16.30;92.30;;;;;;4935583;29;19934;-88
2022/03/25 11:54:33;;;;;;;;;;;16.40;91.90;;;;;;4909694;29;19927;-89
2022/03/25 11:57:06;;;;;;;;;;;16.50;91.90;;;;;;4913973;29;20478;-88
2022/03/25 11:59:48;;;;;;;;;;;16.70;91.40;;;;;;4924162;29;19935;-89
2022/03/25 12:02:32;;;;;;;;;;;16.80;90.80;;;;;;4894032;29;19938;-88
2022/03/25 12:05:04;;;;;;;;;;;16.90;90.50;;;;;;4923572;29;19938;-87
2022/03/25 12:07:36;;;;;;;;;;;17.10;91.20;;;;;;4923854;29;19938;-88
2022/03/25 12:10:29;;;;;;;;;;;17.20;89.70;;;;;;4914811;29;20410;-89
2022/03/25 12:13:00;;;;;;;;;;;17.20;90.00;;;;;;4908730;29;19927;-87
2022/03/25 12:15:45;;;;;;;;;;;17.30;90.00;;;;;;4909745;29;19931;-90
2022/03/25 12:18:34;;;;;;;;;;;17.20;90.00;;;;;;4907210;29;20307;-86
2022/03/25 12:21:13;;;;;;;;;;;17.30;90.10;;;;;;4936584;29;21125;-87
2022/03/25 12:23:53;;;;;;;;;;;17.40;88.50;;;;;;4894633;29;19931;-89
2022/03/25 12:26:30;;;;;;;;;;;17.50;87.30;;;;;;4924367;29;20244;-86
2022/03/25 12:29:07;;;;;;;;;;;17.60;87.60;;;;;;4923957;29;19934;-86
2022/03/25 12:31:37;;;;;;;;;;;17.60;88.60;;;;;;4923986;29;20426;-87
2022/03/25 12:34:10;;;;;;;;;;;17.80;86.80;;;;;;4908773;29;19931;-87
2022/03/25 12:36:48;;;;;;;;;;;17.80;86.80;;;;;;4889981;29;19938;-87
2022/03/25 12:39:21;;;;;;;;;;;17.90;86.60;;;;;;4922632;29;19971;-90
2022/03/25 12:41:52;;;;;;;;;;;17.90;86.90;;;;;;4925482;29;19931;-89
2022/03/25 12:44:26;;;;;;;;;;;17.90;86.30;;;;;;4922172;29;19934;-89
2022/03/25 12:47:00;;;;;;;;;;;17.90;86.20;;;;;;4890627;29;20508;-88
2022/03/25 12:49:31;;;;;;;;;;;18.00;84.80;;;;;;4892270;29;19931;-90
2022/03/25 12:52:04;;;;;;;;;;;18.00;85.60;;;;;;4563773;29;9999719;-88
2022/03/25 12:54:37;;;;;;;;;;;18.00;83.80;;;;;;4922201;29;19923;-87
2022/03/25 12:57:06;;;;;;;;;;;18.10;85.00;;;;;;4920501;29;20098;-88
2022/03/25 12:59:57;;;;;;;;;;;18.10;83.30;;;;;;4905619;29;19935;-90
2022/03/25 13:02:35;;;;;;;;;;;18.20;81.20;;;;;;4906916;29;19931;-89
2022/03/25 13:05:10;;;;;;;;;;;18.20;81.70;;;;;;4922926;29;19927;-88
2022/03/25 13:07:43;;;;;;;;;;;18.30;81.40;;;;;;4920671;29;19931;-90
2022/03/25 13:10:12;;;;;;;;;;;18.70;81.30;;;;;;4920247;29;19931;-86
2022/03/25 13:12:50;;;;;;;;;;;18.30;78.50;;;;;;4890719;29;19938;-87
2022/03/25 13:15:29;;;;;;;;;;;18.30;79.60;;;;;;4925683;29;19930;-88
2022/03/25 13:17:59;;;;;;;;;;;18.40;79.20;;;;;;4920931;29;19927;-90
2022/03/25 13:20:34;;;;;;;;;;;18.40;78.20;;;;;;4905862;29;19931;-86
2022/03/25 13:23:03;;;;;;;;;;;18.60;77.70;;;;;;4922809;29;19927;-88
2022/03/25 13:25:34;;;;;;;;;;;18.60;77.60;;;;;;4912197;29;20310;-88
2022/03/25 13:28:03;;;;;;;;;;;18.60;77.40;;;;;;4910944;29;19927;-88
2022/03/25 13:30:34;;;;;;;;;;;18.40;77.30;;;;;;4924161;29;19933;-88
2022/03/25 13:33:12;;;;;;;;;;;19.20;77.30;;;;;;4912278;29;19931;-91
2022/03/25 13:35:47;;;;;;;;;;;19.10;76.70;;;;;;4924914;29;19931;-89
2022/03/25 13:38:21;;;;;;;;;;;19.00;74.00;;;;;;4928267;29;19927;-89
2022/03/25 13:40:54;;;;;;;;;;;19.20;74.60;;;;;;4913926;29;19935;-90
2022/03/25 13:43:47;;;;;;;;;;;19.30;73.10;;;;;;4896620;29;19937;-89
2022/03/25 13:46:24;;;;;;;;;;;19.40;72.50;;;;;;4926003;29;19942;-90
2022/03/25 13:48:57;;;;;;;;;;;18.20;71.20;;;;;;4942828;29;20305;-88
2022/03/25 13:51:30;;;;;;;;;;;19.50;71.40;;;;;;4927727;29;19934;-88
2022/03/25 13:54:13;;;;;;;;;;;19.40;71.80;;;;;;4913439;29;20180;-86
2022/03/25 13:56:49;;;;;;;;;;;19.70;70.60;;;;;;4912383;29;19927;-89
2022/03/25 13:59:23;;;;;;;;;;;19.80;70.40;;;;;;4928680;29;19934;-89
2022/03/25 14:01:52;;;;;;;;;;;20.00;70.00;;;;;;4912502;29;20140;-89
2022/03/25 14:04:26;;;;;;;;;;;20.20;69.60;;;;;;4915069;29;19934;-90
2022/03/25 14:10:26;;;;;;;;;;;20.50;68.30;;;;;;5004455;23;10000344;-90
2022/03/25 14:16:18;;;;;;;;;;;20.50;67.90;;;;;;4914095;29;19931;-90
2022/03/25 14:23:08;;;;;;;;;;;20.40;66.60;;;;;;4950831;29;19925;-91
2022/03/25 14:29:13;;;;;;;;;;;20.60;67.90;;;;;;4918158;29;19935;-90
2022/03/25 14:31:49;;;;;;;;;;;20.60;66.70;;;;;;4936144;29;19933;-90
2022/03/25 14:34:37;;;;;;;;;;;20.70;67.20;;;;;;4938279;28;19911;-92
2022/03/25 14:37:08;;;;;;;;;;;20.60;66.70;;;;;;4940685;28;19915;-90
2022/03/25 14:39:43;;;;;;;;;;;20.20;65.70;;;;;;4909559;29;19923;-90
2022/03/25 14:42:12;;;;;;;;;;;20.50;65.90;;;;;;4953033;29;20367;-89
2022/03/25 14:44:45;;;;;;;;;;;20.30;66.80;;;;;;4910690;29;19929;-89
2022/03/25 14:47:21;;;;;;;;;;;20.20;67.00;;;;;;4941952;29;19911;-92
2022/03/25 14:50:35;;;;;;;;;;;20.20;67.50;;;;;;4919038;29;19917;-89
2022/03/25 14:53:14;;;;;;;;;;;20.30;66.60;;;;;;4908985;29;19933;-88
2022/03/25 14:56:10;;;;;;;;;;;20.50;66.60;;;;;;4907151;29;19912;-91
2022/03/25 14:59:04;;;;;;;;;;;20.60;66.90;;;;;;4929067;29;19912;-90
2022/03/25 15:16:45;;;;;;;;;;;21.40;65.10;;;;;;4924992;29;19917;-87
2022/03/25 15:22:58;;;;;;;;;;;21.30;65.10;;;;;;4916682;29;19928;-88
2022/03/25 15:25:27;;;;;;;;;;;21.80;64.20;;;;;;4916573;29;19930;-88
2022/03/25 15:28:04;;;;;;;;;;;22.00;63.50;;;;;;4901691;29;19912;-88
2022/03/25 15:36:15;;;;;;;;;;;22.90;63.40;;;;;;4901267;29;20264;-88